Time;durP1;ratioP1;P1;durP2;ratioP2;P2;SDS_P1;SDS_P2;PMS_P1;PMS_P2;Temp;Humidity;BMP_temperature;BMP_pressure;BME280_temperature;BME280_humidity;BME280_pressure;Samples;Min_cycle;Max_cycle;Signal;HPM_P1;HPM_P2
2022/04/19 00:00:24;;;;;;;4.30;1.20;;;9.90;99.90;;;;;;5031791;28;20310;-90
2022/04/19 00:02:56;;;;;;;1.77;1.37;;;9.80;99.90;;;;;;5064633;28;20222;-88
2022/04/19 00:08:16;;;;;;;2.33;1.40;;;10.00;99.90;;;;;;5072623;28;20200;-90
2022/04/19 00:10:54;;;;;;;3.43;1.20;;;10.10;99.90;;;;;;5076508;28;20212;-90
2022/04/19 00:13:28;;;;;;;2.30;1.40;;;10.10;99.90;;;;;;5080190;28;20200;-91
2022/04/19 00:16:04;;;;;;;3.20;1.50;;;10.10;99.90;;;;;;5077308;28;20230;-89
2022/04/19 00:18:36;;;;;;;2.50;1.70;;;10.10;99.90;;;;;;5070705;28;20203;-89
2022/04/19 00:21:12;;;;;;;2.97;1.83;;;10.10;99.90;;;;;;5076637;28;20220;-90
2022/04/19 00:23:46;;;;;;;3.30;1.77;;;10.00;99.90;;;;;;5072127;28;20199;-91
2022/04/19 00:26:19;;;;;;;4.77;1.80;;;10.00;99.90;;;;;;5055864;28;20258;-89
2022/04/19 00:28:51;;;;;;;5.87;2.30;;;10.00;99.90;;;;;;5074360;28;20230;-89
2022/04/19 00:31:28;;;;;;;3.03;2.20;;;9.80;99.90;;;;;;5065191;28;20212;-90
2022/04/19 00:34:00;;;;;;;3.87;1.97;;;9.80;99.90;;;;;;5073544;28;20273;-89
2022/04/19 00:36:32;;;;;;;2.80;2.03;;;9.80;99.90;;;;;;5064408;28;20261;-89
2022/04/19 00:39:03;;;;;;;4.03;2.57;;;9.60;99.90;;;;;;5072998;28;20191;-89
2022/04/19 00:41:34;;;;;;;5.07;2.70;;;9.50;99.90;;;;;;5068471;28;20681;-89
2022/04/19 00:44:07;;;;;;;5.90;3.37;;;9.50;99.90;;;;;;5065935;28;20667;-90
2022/04/19 00:46:41;;;;;;;5.13;2.73;;;9.40;99.90;;;;;;5076173;28;20254;-90
2022/04/19 00:49:12;;;;;;;4.93;2.70;;;9.40;99.90;;;;;;5071413;28;20270;-90
2022/04/19 00:51:43;;;;;;;8.57;2.60;;;9.50;99.90;;;;;;5059306;28;20204;-90
2022/04/19 00:54:26;;;;;;;6.73;3.43;;;9.40;99.90;;;;;;5078047;28;20262;-88
2022/04/19 00:57:06;;;;;;;9.60;2.73;;;9.50;99.90;;;;;;5067748;28;20212;-91
2022/04/19 00:59:37;;;;;;;3.80;2.60;;;9.40;99.90;;;;;;5070262;28;20200;-89
2022/04/19 01:02:11;;;;;;;6.37;2.63;;;9.40;99.90;;;;;;5077766;28;20254;-90
2022/04/19 01:04:42;;;;;;;3.43;2.17;;;9.40;99.90;;;;;;5077635;28;20192;-89
2022/04/19 01:07:14;;;;;;;3.90;2.50;;;9.30;99.90;;;;;;5078458;28;20242;-95
2022/04/19 01:09:45;;;;;;;7.77;6.53;;;9.30;99.90;;;;;;5075268;28;20204;-90
2022/04/19 01:15:07;;;;;;;2.80;2.37;;;9.20;99.90;;;;;;5061527;28;20208;-90
2022/04/19 01:17:42;;;;;;;5.63;4.53;;;9.20;99.90;;;;;;5061609;28;20220;-90
2022/04/19 01:20:20;;;;;;;2.20;1.50;;;9.20;99.90;;;;;;5064660;28;20280;-91
2022/04/19 01:22:54;;;;;;;1.53;1.30;;;9.10;99.90;;;;;;5061872;28;20208;-90
2022/04/19 01:25:31;;;;;;;2.10;1.67;;;9.00;99.90;;;;;;5046135;28;20607;-90
2022/04/19 01:28:02;;;;;;;31.00;10.43;;;9.00;99.90;;;;;;5065860;28;20212;-90
2022/04/19 01:30:34;;;;;;;3.40;2.80;;;8.80;99.90;;;;;;5062220;28;20219;-90
2022/04/19 01:33:07;;;;;;;2.37;1.03;;;8.70;99.90;;;;;;5066347;28;20240;-90
2022/04/19 01:35:39;;;;;;;1.83;1.10;;;8.60;99.90;;;;;;5042078;28;20247;-90
2022/04/19 01:38:12;;;;;;;3.13;1.00;;;8.50;99.90;;;;;;5059757;28;20728;-90
2022/04/19 01:40:43;;;;;;;1.80;1.17;;;8.30;99.90;;;;;;5066067;28;20212;-90
2022/04/19 01:43:15;;;;;;;1.63;1.33;;;8.10;99.90;;;;;;5069206;28;20241;-90
2022/04/19 01:45:46;;;;;;;0.93;0.93;;;7.90;99.90;;;;;;5076920;28;20235;-91
2022/04/19 01:48:17;;;;;;;1.63;0.70;;;7.70;99.90;;;;;;5080816;28;20228;-90
2022/04/19 01:50:50;;;;;;;1.37;0.60;;;7.70;99.90;;;;;;5080888;28;20344;-90
2022/04/19 01:53:27;;;;;;;3.20;0.60;;;7.40;99.90;;;;;;5095843;28;20188;-90
2022/04/19 01:55:58;;;;;;;1.27;0.30;;;7.40;99.90;;;;;;5093913;28;20228;-91
2022/04/19 01:58:29;;;;;;;1.13;0.70;;;7.30;99.90;;;;;;5094704;28;20204;-91
2022/04/19 02:03:45;;;;;;;1.77;0.40;;;7.20;99.90;;;;;;5088454;28;20231;-89
2022/04/19 02:06:20;;;;;;;1.53;0.93;;;7.30;99.90;;;;;;5085226;28;20230;-90
2022/04/19 02:11:41;;;;;;;0.33;0.30;;;7.10;99.90;;;;;;5075345;28;20208;-91
2022/04/19 02:14:27;;;;;;;1.10;0.57;;;7.00;99.90;;;;;;5072566;28;20272;-90
2022/04/19 02:17:12;;;;;;;21.60;2.70;;;6.80;99.90;;;;;;5564266;22;20272;-91
2022/04/19 02:19:47;;;;;;;0.90;0.53;;;6.80;99.90;;;;;;5033806;28;20215;-91
2022/04/19 02:25:09;;;;;;;1.40;1.40;;;6.60;99.90;;;;;;5133798;22;20236;-91
2022/04/19 02:27:43;;;;;;;1.50;0.30;;;6.50;99.90;;;;;;5052409;28;20276;-90
2022/04/19 02:30:18;;;;;;;1.07;0.40;;;6.40;99.90;;;;;;5059704;28;20196;-92
2022/04/19 02:32:51;;;;;;;2.27;2.13;;;6.30;99.90;;;;;;5078349;28;20226;-91
2022/04/19 02:35:41;;;;;;;0.30;0.30;;;6.20;99.90;;;;;;5075656;28;20655;-92
2022/04/19 02:38:15;;;;;;;2.53;2.33;;;6.10;99.90;;;;;;5072010;28;20199;-92
2022/04/19 02:40:52;;;;;;;0.50;0.40;;;6.20;99.90;;;;;;5059397;28;20199;-91
2022/04/19 02:43:25;;;;;;;3.47;2.97;;;6.10;99.90;;;;;;5073688;28;20207;-91
2022/04/19 02:45:58;;;;;;;1.10;0.97;;;6.20;99.90;;;;;;5077452;28;20216;-91
2022/04/19 02:48:30;;;;;;;0.60;0.60;;;6.10;99.90;;;;;;5092032;28;20203;-92
2022/04/19 02:51:05;;;;;;;0.40;0.40;;;6.10;99.90;;;;;;5066515;28;20235;-92
2022/04/19 02:53:38;;;;;;;0.97;0.70;;;6.10;99.90;;;;;;5050842;28;20207;-90
2022/04/19 02:56:21;;;;;;;30.13;5.07;;;6.10;99.90;;;;;;5069766;28;20227;-92
2022/04/19 02:59:05;;;;;;;1.60;0.77;;;6.00;99.90;;;;;;5068233;28;20200;-90
2022/04/19 03:01:39;;;;;;;0.30;0.30;;;6.00;99.90;;;;;;5070230;28;20242;-91
2022/04/19 03:04:15;;;;;;;0.60;0.40;;;6.10;99.90;;;;;;5070688;28;20196;-91
2022/04/19 03:06:49;;;;;;;2.97;2.77;;;6.00;99.90;;;;;;5075091;28;20214;-90
2022/04/19 03:09:24;;;;;;;1.77;0.70;;;6.00;99.90;;;;;;5307773;22;20255;-92
2022/04/19 03:12:01;;;;;;;0.67;0.40;;;5.90;99.90;;;;;;5048659;28;20224;-92
2022/04/19 03:14:35;;;;;;;0.53;0.53;;;5.90;99.90;;;;;;5042094;28;20231;-91
2022/04/19 03:17:07;;;;;;;6.03;5.50;;;5.80;99.90;;;;;;5038186;28;20236;-92
2022/04/19 03:19:39;;;;;;;2.40;0.80;;;5.80;99.90;;;;;;5050928;28;20236;-90
2022/04/19 03:22:12;;;;;;;4.07;2.73;;;5.80;99.90;;;;;;5052811;28;20197;-91
2022/04/19 03:30:25;;;;;;;4.03;1.23;;;5.80;99.90;;;;;;5051929;28;20223;-92
2022/04/19 03:33:11;;;;;;;1.50;1.00;;;5.70;99.90;;;;;;5054381;28;20208;-92
2022/04/19 03:35:46;;;;;;;1.53;0.60;;;5.70;99.90;;;;;;5054228;28;20201;-91
2022/04/19 03:38:22;;;;;;;1.07;0.53;;;5.70;99.90;;;;;;5052819;28;20741;-92
2022/04/19 03:44:00;;;;;;;1.37;1.37;;;5.70;99.90;;;;;;5053286;28;20193;-90
2022/04/19 03:47:06;;;;;;;23.93;6.93;;;5.70;99.90;;;;;;5051220;28;20220;-91
2022/04/19 03:49:28;;;;;;;0.97;0.50;;;5.70;99.90;;;;;;5051307;28;20208;-92
2022/04/19 03:52:01;;;;;;;1.60;1.37;;;5.80;99.90;;;;;;5050765;28;20223;-91
2022/04/19 03:54:47;;;;;;;1.43;1.33;;;5.80;99.90;;;;;;5053980;28;20200;-90
2022/04/19 03:57:18;;;;;;;1.33;1.13;;;5.80;99.90;;;;;;5049758;28;20267;-90
2022/04/19 04:00:06;;;;;;;0.80;0.60;;;5.80;99.90;;;;;;5048093;28;20264;-92
2022/04/19 04:02:56;;;;;;;1.40;1.00;;;5.80;99.90;;;;;;5054592;28;20189;-93
2022/04/19 04:05:33;;;;;;;1.50;0.77;;;5.80;99.90;;;;;;5051851;28;20270;-91
2022/04/19 04:08:10;;;;;;;1.07;0.90;;;5.90;99.90;;;;;;5054377;28;20213;-91
2022/04/19 04:13:47;;;;;;;6.60;6.00;;;5.90;99.90;;;;;;5053417;28;20204;-93
2022/04/19 04:16:21;;;;;;;3.73;3.53;;;5.90;99.90;;;;;;5301881;22;20262;-91
2022/04/19 04:24:27;;;;;;;73.93;7.50;;;5.80;99.90;;;;;;5048828;28;20205;-93
2022/04/19 04:26:59;;;;;;;3.90;3.60;;;5.80;99.90;;;;;;5032337;28;20209;-92
2022/04/19 04:29:30;;;;;;;0.80;0.80;;;5.80;99.90;;;;;;5048444;28;20212;-92
2022/04/19 04:32:03;;;;;;;1.30;1.20;;;5.80;99.90;;;;;;5046594;28;20236;-92
2022/04/19 04:34:34;;;;;;;0.83;0.60;;;5.80;99.90;;;;;;5032322;28;20205;-92
2022/04/19 04:37:13;;;;;;;0.70;0.60;;;5.80;99.90;;;;;;5048884;28;20228;-92
2022/04/19 04:39:45;;;;;;;2.20;0.67;;;5.80;99.90;;;;;;5047054;28;20219;-88
2022/04/19 04:42:16;;;;;;;2.53;0.73;;;5.70;99.90;;;;;;5032791;28;20239;-91
2022/04/19 04:44:49;;;;;;;1.27;0.97;;;5.70;99.90;;;;;;5049969;28;20205;-91
2022/04/19 04:50:15;;;;;;;0.73;0.47;;;5.60;99.90;;;;;;5013075;28;20214;-92
2022/04/19 04:52:49;;;;;;;1.20;1.03;;;5.60;99.90;;;;;;5042601;28;20197;-91
2022/04/19 04:55:23;;;;;;;1.87;0.80;;;5.60;99.90;;;;;;5059768;28;20200;-92
2022/04/19 05:00:41;;;;;;;2.07;0.73;;;5.60;99.90;;;;;;5235182;23;20299;-90
2022/04/19 05:03:16;;;;;;;1.27;0.60;;;5.50;99.90;;;;;;5014679;28;20201;-90
2022/04/19 05:05:48;;;;;;;1.40;0.90;;;5.60;99.90;;;;;;5283356;23;20244;-90
2022/04/19 05:08:26;;;;;;;2.77;2.60;;;5.60;99.90;;;;;;5007804;28;20222;-92
2022/04/19 05:10:58;;;;;;;1.13;0.83;;;5.60;99.90;;;;;;5014360;28;20203;-92
2022/04/19 05:13:30;;;;;;;0.60;0.60;;;5.70;99.90;;;;;;5008855;28;20218;-91
2022/04/19 05:16:02;;;;;;;3.67;2.90;;;5.70;99.90;;;;;;5017398;28;20253;-92
2022/04/19 05:18:35;;;;;;;2.60;2.47;;;5.80;99.90;;;;;;5033356;28;20309;-92
2022/04/19 05:21:10;;;;;;;0.80;0.70;;;5.80;99.90;;;;;;5021948;28;20209;-92
2022/04/19 05:23:47;;;;;;;2.00;0.80;;;5.80;99.90;;;;;;5035129;28;20216;-92
2022/04/19 05:26:19;;;;;;;1.27;0.67;;;5.80;99.90;;;;;;5017641;28;20213;-90
2022/04/19 05:28:50;;;;;;;1.27;0.90;;;5.70;99.90;;;;;;5029187;28;20220;-91
2022/04/19 05:31:22;;;;;;;1.57;0.80;;;5.80;99.90;;;;;;5018087;28;20202;-91
2022/04/19 05:33:54;;;;;;;0.97;0.80;;;5.80;99.90;;;;;;5011770;28;20225;-89
2022/04/19 05:36:25;;;;;;;0.50;0.50;;;5.80;99.90;;;;;;5009516;28;20234;-89
2022/04/19 05:39:02;;;;;;;1.03;0.73;;;5.80;99.90;;;;;;4991205;28;20241;-91
2022/04/19 05:41:41;;;;;;;0.90;0.80;;;5.90;99.90;;;;;;5012932;28;20202;-92
2022/04/19 05:44:13;;;;;;;0.90;0.60;;;5.80;99.90;;;;;;5013371;28;20302;-89
2022/04/19 05:46:47;;;;;;;1.27;1.10;;;5.90;99.90;;;;;;5013511;28;20198;-90
2022/04/19 05:49:19;;;;;;;1.10;0.70;;;5.90;99.90;;;;;;5009837;28;20213;-92
2022/04/19 05:51:52;;;;;;;2.40;1.00;;;5.80;99.90;;;;;;4994329;28;20237;-92
2022/04/19 05:54:25;;;;;;;2.87;0.73;;;5.80;99.90;;;;;;5009956;28;20194;-91
2022/04/19 05:56:56;;;;;;;0.80;0.60;;;5.80;99.90;;;;;;4993560;28;20238;-92
2022/04/19 05:59:27;;;;;;;2.47;2.30;;;5.80;99.90;;;;;;5006274;28;20246;-90
2022/04/19 06:04:58;;;;;;;3.83;1.97;;;5.90;99.90;;;;;;5010281;28;20211;-91
2022/04/19 06:07:33;;;;;;;0.60;0.57;;;5.80;99.90;;;;;;5016632;28;20237;-92
2022/04/19 06:10:12;;;;;;;2.60;0.80;;;5.80;99.90;;;;;;5018228;28;20212;-90
2022/04/19 06:12:43;;;;;;;0.80;0.70;;;5.80;99.90;;;;;;5019150;28;20201;-90
2022/04/19 06:15:14;;;;;;;2.50;0.87;;;5.80;99.90;;;;;;5019082;28;20206;-92
2022/04/19 06:17:46;;;;;;;2.20;0.60;;;5.80;99.90;;;;;;5015391;28;20222;-91
2022/04/19 06:20:25;;;;;;;1.37;0.60;;;5.80;99.90;;;;;;5011697;28;20214;-91
2022/04/19 06:22:56;;;;;;;2.57;1.47;;;5.70;99.90;;;;;;5004017;28;20673;-92
2022/04/19 06:25:30;;;;;;;1.23;1.20;;;5.70;99.90;;;;;;5001347;28;20668;-90
2022/04/19 06:28:01;;;;;;;1.87;0.60;;;5.70;99.90;;;;;;5000625;28;20206;-91
2022/04/19 06:30:33;;;;;;;1.87;0.90;;;5.70;99.90;;;;;;5006227;28;20206;-90
2022/04/19 06:33:05;;;;;;;0.60;0.60;;;5.70;99.90;;;;;;5002049;28;20269;-91
2022/04/19 06:35:37;;;;;;;1.97;0.80;;;5.70;99.90;;;;;;5001240;28;20210;-90
2022/04/19 06:38:08;;;;;;;3.50;0.90;;;5.70;99.90;;;;;;5000272;28;20288;-93
2022/04/19 06:40:41;;;;;;;1.77;0.70;;;5.60;99.90;;;;;;4999745;28;20214;-92
2022/04/19 06:43:12;;;;;;;1.67;1.57;;;5.60;99.90;;;;;;5000103;28;20214;-91
2022/04/19 06:45:45;;;;;;;1.97;1.80;;;5.60;99.90;;;;;;4995912;28;20302;-93
2022/04/19 06:51:04;;;;;;;1.67;1.47;;;5.50;99.90;;;;;;5000604;28;20218;-91
2022/04/19 06:53:57;;;;;;;1.63;1.17;;;5.50;99.90;;;;;;4999671;28;20241;-91
2022/04/19 06:56:31;;;;;;;1.33;0.70;;;5.50;99.90;;;;;;5005844;28;20214;-91
2022/04/19 06:59:08;;;;;;;0.93;0.70;;;5.40;99.90;;;;;;5011097;28;20266;-91
2022/04/19 07:01:43;;;;;;;1.80;0.70;;;5.40;99.90;;;;;;5014795;28;20220;-91
2022/04/19 07:04:23;;;;;;;1.40;0.70;;;5.40;99.90;;;;;;5006834;28;20210;-91
2022/04/19 07:06:54;;;;;;;2.47;2.27;;;5.30;99.90;;;;;;5009075;28;20222;-92
2022/04/19 07:09:26;;;;;;;1.73;1.50;;;5.30;99.90;;;;;;5133049;23;20223;-91
2022/04/19 07:11:59;;;;;;;2.63;1.00;;;5.40;99.90;;;;;;5066118;28;20554;-92
2022/04/19 07:14:33;;;;;;;1.70;0.70;;;5.30;99.90;;;;;;5061872;28;20250;-92
2022/04/19 07:17:04;;;;;;;0.97;0.70;;;5.30;99.90;;;;;;5057965;28;20212;-92
2022/04/19 07:28:05;;;;;;;3.03;2.80;;;5.20;99.90;;;;;;5022346;28;20213;-90
2022/04/19 07:30:37;;;;;;;1.77;0.70;;;5.10;99.90;;;;;;5039881;28;20209;-91
2022/04/19 07:33:08;;;;;;;1.13;1.13;;;5.20;99.90;;;;;;5038711;28;20648;-91
2022/04/19 07:35:40;;;;;;;0.70;0.60;;;5.10;99.90;;;;;;5037681;28;20219;-92
2022/04/19 07:38:12;;;;;;;1.73;1.63;;;5.10;99.90;;;;;;5036670;28;20288;-94
2022/04/19 07:40:45;;;;;;;0.97;0.50;;;5.10;99.90;;;;;;5037875;28;20648;-92
2022/04/19 07:43:20;;;;;;;1.03;0.60;;;5.00;99.90;;;;;;5037548;28;20213;-91
2022/04/19 07:45:51;;;;;;;1.70;0.57;;;5.10;99.90;;;;;;5038624;28;20709;-91
2022/04/19 07:48:24;;;;;;;1.20;0.90;;;5.00;99.90;;;;;;5037592;28;20205;-94
2022/04/19 07:51:03;;;;;;;1.90;0.80;;;5.00;99.90;;;;;;5038127;28;20262;-92
2022/04/19 07:53:35;;;;;;;1.70;1.07;;;5.00;99.90;;;;;;5038072;28;20563;-91
2022/04/19 07:56:08;;;;;;;0.90;0.90;;;5.00;99.90;;;;;;5037592;28;20691;-92
2022/04/19 07:58:45;;;;;;;1.20;1.10;;;5.00;99.90;;;;;;5037062;28;20291;-91
2022/04/19 08:01:19;;;;;;;1.33;0.70;;;5.00;99.90;;;;;;5038743;28;20212;-92
2022/04/19 08:03:51;;;;;;;0.77;0.70;;;5.00;99.90;;;;;;5039183;28;20208;-92
2022/04/19 08:06:22;;;;;;;3.93;1.07;;;5.00;99.90;;;;;;5038310;28;20236;-91
2022/04/19 08:08:54;;;;;;;0.43;0.40;;;5.00;99.90;;;;;;5037417;28;20244;-91
2022/04/19 08:11:26;;;;;;;1.07;1.00;;;5.00;99.90;;;;;;5038616;28;20213;-93
2022/04/19 08:14:00;;;;;;;0.50;0.50;;;5.10;99.90;;;;;;5039912;28;20209;-91
2022/04/19 08:16:33;;;;;;;0.80;0.73;;;5.00;99.90;;;;;;5038395;28;20633;-92
2022/04/19 08:19:07;;;;;;;0.90;0.70;;;5.10;99.90;;;;;;5037811;28;20599;-93
2022/04/19 08:21:39;;;;;;;1.27;1.20;;;5.00;99.90;;;;;;5038637;28;20221;-91
2022/04/19 08:24:12;;;;;;;3.00;2.70;;;5.00;99.90;;;;;;5039914;28;20205;-92
2022/04/19 08:26:47;;;;;;;3.33;0.80;;;5.00;99.90;;;;;;5042796;28;20656;-93
2022/04/19 08:29:21;;;;;;;1.30;0.40;;;5.10;99.90;;;;;;5042690;28;20220;-91
2022/04/19 08:31:52;;;;;;;1.00;0.83;;;5.00;99.90;;;;;;5042434;28;20228;-92
2022/04/19 08:34:23;;;;;;;3.70;3.50;;;5.10;99.90;;;;;;5041763;28;20209;-93
2022/04/19 08:36:55;;;;;;;0.97;0.90;;;5.00;99.90;;;;;;5041429;28;20274;-92
2022/04/19 08:39:28;;;;;;;7.33;6.90;;;5.00;99.90;;;;;;5040432;28;20257;-93
2022/04/19 08:41:59;;;;;;;0.77;0.67;;;5.00;99.90;;;;;;5042232;28;20209;-92
2022/04/19 08:44:35;;;;;;;1.27;1.17;;;5.10;99.90;;;;;;5041274;28;20232;-92
2022/04/19 08:47:08;;;;;;;1.07;0.70;;;5.00;99.90;;;;;;5056705;28;20211;-92
2022/04/19 08:49:44;;;;;;;2.10;0.80;;;5.00;99.90;;;;;;5066976;28;20204;-93
2022/04/19 08:52:16;;;;;;;1.33;1.23;;;5.10;99.90;;;;;;5061402;28;20223;-92
2022/04/19 08:57:37;;;;;;;2.13;0.80;;;5.10;99.90;;;;;;5060193;28;20208;-91
2022/04/19 09:00:13;;;;;;;2.93;1.70;;;5.10;99.90;;;;;;5061295;28;20252;-90
2022/04/19 09:02:45;;;;;;;1.70;1.13;;;5.10;99.90;;;;;;5054405;28;20232;-92
2022/04/19 09:05:23;;;;;;;3.83;3.53;;;5.10;99.90;;;;;;5039922;28;20201;-92
2022/04/19 09:07:55;;;;;;;0.87;0.77;;;5.20;99.90;;;;;;5039722;28;20286;-92
2022/04/19 09:10:31;;;;;;;1.67;1.47;;;5.20;99.90;;;;;;5022889;28;20205;-94
2022/04/19 09:13:06;;;;;;;2.00;1.83;;;5.20;99.90;;;;;;5042936;28;20208;-93
2022/04/19 09:15:41;;;;;;;1.07;0.70;;;5.20;99.90;;;;;;5040284;28;20289;-92
2022/04/19 09:18:24;;;;;;;2.30;2.10;;;5.20;99.90;;;;;;5041450;28;20211;-92
2022/04/19 09:20:56;;;;;;;3.70;2.83;;;5.20;99.90;;;;;;5058307;28;20227;-92
2022/04/19 09:23:29;;;;;;;2.57;1.83;;;5.10;99.90;;;;;;5058518;28;20209;-93
2022/04/19 09:26:01;;;;;;;5.10;4.80;;;5.10;99.90;;;;;;5048781;28;20218;-93
2022/04/19 09:28:34;;;;;;;2.30;1.57;;;5.10;99.90;;;;;;5040715;28;20354;-92
2022/04/19 09:31:13;;;;;;;2.17;0.70;;;5.10;99.90;;;;;;5041607;28;20886;-92
2022/04/19 09:33:49;;;;;;;2.63;0.90;;;5.00;99.90;;;;;;5041556;28;20212;-92
2022/04/19 09:36:28;;;;;;;4.03;1.00;;;5.00;99.90;;;;;;5041166;28;20196;-94
2022/04/19 09:39:00;;;;;;;4.47;4.17;;;5.00;99.90;;;;;;5043195;28;20662;-93
2022/04/19 09:41:32;;;;;;;2.03;1.10;;;5.00;99.90;;;;;;5042672;28;20216;-92
2022/04/19 09:44:12;;;;;;;0.70;0.70;;;5.00;99.90;;;;;;5041603;28;20585;-93
2022/04/19 09:47:04;;;;;;;2.23;1.53;;;5.00;99.90;;;;;;5040697;28;20205;-93
2022/04/19 09:49:46;;;;;;;1.63;0.90;;;5.00;99.90;;;;;;5039305;28;20227;-93
2022/04/19 09:52:43;;;;;;;6.43;5.83;;;5.00;99.90;;;;;;5039980;28;20205;-92
2022/04/19 09:55:19;;;;;;;0.73;0.70;;;5.00;99.90;;;;;;5040363;28;20278;-92
2022/04/19 09:57:53;;;;;;;0.63;0.60;;;5.00;99.90;;;;;;5047793;28;20224;-92
2022/04/19 10:00:25;;;;;;;0.70;0.60;;;5.00;99.90;;;;;;5044020;28;20296;-92
2022/04/19 10:08:40;;;;;;;1.67;1.47;;;5.00;99.90;;;;;;5039859;28;20209;-93
2022/04/19 10:11:12;;;;;;;1.27;0.60;;;5.00;99.90;;;;;;5039649;28;20228;-91
2022/04/19 10:13:43;;;;;;;2.03;1.93;;;5.00;99.90;;;;;;5021787;28;20233;-94
2022/04/19 10:16:19;;;;;;;2.20;0.80;;;4.90;99.90;;;;;;5030651;28;20212;-94
2022/04/19 10:18:55;;;;;;;1.97;0.60;;;4.90;99.90;;;;;;5063516;28;20204;-92
2022/04/19 10:21:28;;;;;;;1.40;0.77;;;4.90;99.90;;;;;;5058740;28;20640;-93
2022/04/19 10:24:13;;;;;;;1.57;0.80;;;4.80;99.90;;;;;;5059917;28;20212;-90
2022/04/19 10:26:49;;;;;;;1.00;0.90;;;4.80;99.90;;;;;;5054420;28;20255;-92
2022/04/19 10:29:24;;;;;;;1.23;0.50;;;4.80;99.90;;;;;;5041132;28;20284;-92
2022/04/19 10:32:01;;;;;;;3.70;3.20;;;4.80;99.90;;;;;;5023201;28;20239;-92
2022/04/19 10:34:35;;;;;;;1.73;1.43;;;4.70;99.90;;;;;;5023274;28;20264;-91
2022/04/19 10:37:23;;;;;;;2.40;2.10;;;4.70;99.90;;;;;;5039713;28;20225;-91
2022/04/19 10:40:07;;;;;;;1.13;0.80;;;4.60;99.90;;;;;;5039718;28;20216;-91
2022/04/19 10:42:40;;;;;;;1.13;0.90;;;4.60;99.90;;;;;;5039542;28;20316;-90
2022/04/19 10:45:25;;;;;;;1.53;1.43;;;4.60;99.90;;;;;;5039742;28;20216;-93
2022/04/19 10:48:10;;;;;;;1.00;0.67;;;4.60;99.90;;;;;;5039284;28;20216;-92
2022/04/19 10:50:45;;;;;;;1.23;0.70;;;4.60;99.90;;;;;;5039677;28;20339;-91
2022/04/19 10:53:18;;;;;;;0.90;0.83;;;4.60;99.90;;;;;;5041653;28;20251;-92
2022/04/19 10:56:05;;;;;;;4.50;4.10;;;4.60;99.90;;;;;;5039598;28;20208;-92
2022/04/19 10:58:44;;;;;;;1.63;0.70;;;4.60;99.90;;;;;;5051059;28;20262;-92
2022/04/19 11:01:31;;;;;;;3.30;1.10;;;4.60;99.90;;;;;;5058790;28;20259;-92
2022/04/19 11:04:03;;;;;;;0.73;0.60;;;4.60;99.90;;;;;;5060592;28;20214;-92
2022/04/19 11:06:41;;;;;;;0.70;0.70;;;4.60;99.90;;;;;;5061310;28;20243;-92
2022/04/19 11:09:24;;;;;;;2.07;1.97;;;4.60;99.90;;;;;;5040950;28;20641;-92
2022/04/19 11:11:56;;;;;;;2.67;2.47;;;4.60;99.90;;;;;;5058826;28;20239;-91
2022/04/19 11:14:48;;;;;;;0.73;0.50;;;4.60;99.90;;;;;;5042741;28;20634;-92
2022/04/19 11:17:24;;;;;;;0.77;0.57;;;4.60;99.90;;;;;;5069902;28;20199;-91
2022/04/19 11:20:11;;;;;;;2.10;1.17;;;4.70;99.90;;;;;;5076152;28;20180;-93
2022/04/19 11:22:52;;;;;;;1.00;0.60;;;4.70;99.90;;;;;;5075803;28;20212;-91
2022/04/19 11:25:40;;;;;;;0.73;0.63;;;4.70;99.90;;;;;;5076803;28;20193;-91
2022/04/19 11:28:25;;;;;;;0.80;0.80;;;4.70;99.90;;;;;;5074035;28;20681;-91
2022/04/19 11:31:16;;;;;;;0.80;0.80;;;4.60;99.90;;;;;;5073524;28;20204;-92
2022/04/19 11:33:48;;;;;;;1.73;0.77;;;4.70;99.90;;;;;;5076859;28;20211;-91
2022/04/19 11:36:20;;;;;;;0.57;0.57;;;4.70;99.90;;;;;;5071203;28;20289;-91
2022/04/19 11:38:56;;;;;;;1.13;0.70;;;4.80;99.90;;;;;;5059255;28;20258;-91
2022/04/19 11:47:02;;;;;;;1.73;0.80;;;4.80;99.90;;;;;;5027582;28;20235;-92
2022/04/19 11:49:38;;;;;;;1.50;0.83;;;4.90;99.90;;;;;;5051448;28;20205;-90
2022/04/19 11:52:14;;;;;;;8.03;4.50;;;4.80;99.90;;;;;;5050918;28;20557;-93
2022/04/19 11:54:47;;;;;;;0.80;0.70;;;4.80;99.90;;;;;;5043959;28;20216;-92
2022/04/19 11:57:18;;;;;;;1.77;1.30;;;4.70;99.90;;;;;;5038613;28;20576;-90
2022/04/19 11:59:54;;;;;;;0.87;0.87;;;4.70;99.90;;;;;;5027975;28;20203;-90
2022/04/19 12:02:26;;;;;;;1.67;0.83;;;4.70;99.90;;;;;;5062518;28;20266;-91
2022/04/19 12:05:02;;;;;;;1.00;0.90;;;4.70;99.90;;;;;;5062663;28;20294;-91
2022/04/19 12:07:33;;;;;;;3.37;1.23;;;4.60;99.90;;;;;;5044976;28;20224;-92
2022/04/19 12:10:10;;;;;;;1.10;1.00;;;4.50;99.90;;;;;;5046381;28;20589;-92
2022/04/19 12:12:42;;;;;;;4.13;2.60;;;4.50;99.90;;;;;;5061810;28;20211;-90
2022/04/19 12:15:15;;;;;;;3.00;2.80;;;4.50;99.90;;;;;;5061906;28;20265;-91
2022/04/19 12:17:46;;;;;;;1.23;1.13;;;4.50;99.90;;;;;;5061235;28;20208;-93
2022/04/19 12:20:18;;;;;;;2.47;1.30;;;4.40;99.90;;;;;;5062154;28;20208;-91
2022/04/19 12:22:51;;;;;;;1.27;1.20;;;4.40;99.90;;;;;;5062707;28;20240;-93
2022/04/19 12:25:26;;;;;;;0.73;0.73;;;4.40;99.90;;;;;;5063949;28;20196;-91
2022/04/19 12:27:58;;;;;;;1.00;0.93;;;4.40;99.90;;;;;;5065317;28;20208;-90
2022/04/19 12:30:31;;;;;;;1.87;0.97;;;4.40;99.90;;;;;;5064311;28;20211;-89
2022/04/19 12:33:08;;;;;;;0.80;0.80;;;4.40;99.90;;;;;;5069327;28;20208;-91
2022/04/19 12:35:39;;;;;;;1.10;0.90;;;4.40;99.90;;;;;;5078855;28;20194;-89
2022/04/19 12:38:13;;;;;;;0.87;0.77;;;4.40;99.90;;;;;;5078842;28;20199;-90
2022/04/19 12:40:48;;;;;;;0.70;0.60;;;4.30;99.90;;;;;;5077909;28;20275;-91
2022/04/19 12:43:20;;;;;;;0.87;0.80;;;4.30;99.90;;;;;;5078481;28;20235;-90
2022/04/19 12:45:52;;;;;;;2.87;0.90;;;4.30;99.90;;;;;;5074809;28;20244;-90
2022/04/19 12:48:24;;;;;;;0.80;0.80;;;4.20;99.90;;;;;;5058299;28;20205;-93
2022/04/19 12:51:02;;;;;;;1.37;0.93;;;4.30;99.90;;;;;;5042987;28;20209;-90
2022/04/19 12:53:36;;;;;;;0.93;0.93;;;4.40;99.90;;;;;;5056004;28;20200;-91
2022/04/19 12:56:16;;;;;;;1.10;1.00;;;4.40;99.90;;;;;;5055694;28;20212;-89
2022/04/19 12:58:49;;;;;;;1.03;1.00;;;4.40;99.90;;;;;;5054139;28;20220;-89
2022/04/19 13:01:20;;;;;;;1.43;1.33;;;4.50;99.90;;;;;;5056036;28;20217;-88
2022/04/19 13:03:53;;;;;;;1.40;1.03;;;4.50;99.90;;;;;;5055164;28;20259;-89
2022/04/19 13:12:22;;;;;;;1.23;1.07;;;4.70;99.90;;;;;;5056691;28;20201;-89
2022/04/19 13:14:55;;;;;;;1.73;1.33;;;4.70;99.90;;;;;;5057262;28;20200;-90
2022/04/19 13:17:30;;;;;;;1.67;1.27;;;4.60;99.90;;;;;;5056995;28;20244;-91
2022/04/19 13:20:02;;;;;;;1.60;1.40;;;4.50;99.90;;;;;;5057769;28;20196;-88
2022/04/19 13:22:36;;;;;;;2.47;2.20;;;4.60;99.90;;;;;;5055167;28;20282;-90
2022/04/19 13:25:09;;;;;;;2.30;2.10;;;4.60;99.90;;;;;;5035254;28;20204;-89
2022/04/19 13:27:43;;;;;;;2.87;2.40;;;4.60;99.90;;;;;;5050012;28;20236;-91
2022/04/19 13:30:16;;;;;;;3.17;2.40;;;4.60;99.90;;;;;;5050404;28;20208;-89
2022/04/19 13:32:48;;;;;;;2.87;1.80;;;4.60;99.90;;;;;;5054673;28;20643;-90
2022/04/19 13:35:22;;;;;;;2.17;1.93;;;4.60;99.90;;;;;;5045833;28;20204;-89
2022/04/19 13:40:42;;;;;;;2.80;1.90;;;4.70;99.90;;;;;;5043288;28;20236;-91
2022/04/19 13:43:15;;;;;;;2.63;2.20;;;4.60;99.90;;;;;;5054340;28;20241;-89
2022/04/19 13:45:48;;;;;;;4.00;2.47;;;4.70;99.90;;;;;;5056997;28;20201;-90
2022/04/19 13:48:19;;;;;;;3.27;2.37;;;4.60;99.90;;;;;;5057514;28;20185;-90
2022/04/19 13:50:54;;;;;;;4.30;2.43;;;4.70;99.90;;;;;;5057446;28;20201;-89
2022/04/19 13:53:26;;;;;;;2.77;2.47;;;4.70;99.90;;;;;;5055674;28;20212;-89
2022/04/19 13:55:58;;;;;;;2.97;2.63;;;4.70;99.90;;;;;;5046121;28;20209;-89
2022/04/19 13:58:31;;;;;;;2.67;2.40;;;4.80;99.90;;;;;;5044908;28;20529;-91
2022/04/19 14:01:03;;;;;;;4.73;3.00;;;4.80;99.90;;;;;;5044231;28;20623;-91
2022/04/19 14:03:36;;;;;;;3.00;2.60;;;4.70;99.90;;;;;;5047471;28;20281;-88
2022/04/19 14:06:07;;;;;;;3.03;2.57;;;4.80;99.90;;;;;;5051594;28;20221;-90
2022/04/19 14:08:38;;;;;;;2.50;2.30;;;4.90;99.90;;;;;;5042270;28;20217;-91
2022/04/19 14:11:11;;;;;;;2.33;2.10;;;4.80;99.90;;;;;;5043326;28;20551;-90
2022/04/19 14:13:45;;;;;;;2.20;1.93;;;4.80;99.90;;;;;;5024495;28;20213;-91
2022/04/19 14:16:18;;;;;;;1.97;1.60;;;5.00;99.90;;;;;;5058531;28;20216;-90
2022/04/19 14:18:49;;;;;;;2.20;1.90;;;5.10;99.90;;;;;;5059378;28;20212;-89
2022/04/19 14:21:20;;;;;;;2.53;2.07;;;5.20;99.90;;;;;;5058796;28;20208;-89
2022/04/19 14:23:51;;;;;;;2.53;2.10;;;5.40;99.90;;;;;;5059797;28;20330;-90
2022/04/19 14:26:23;;;;;;;1.93;1.67;;;5.50;99.90;;;;;;5040920;28;20604;-90
2022/04/19 14:34:32;;;;;;;2.00;1.70;;;5.50;99.90;;;;;;5039453;28;20233;-89
2022/04/19 14:37:03;;;;;;;3.83;2.00;;;5.50;99.90;;;;;;5041521;28;20209;-89
2022/04/19 14:39:35;;;;;;;1.63;1.30;;;5.60;99.90;;;;;;5038346;28;20239;-89
2022/04/19 14:42:07;;;;;;;1.70;1.57;;;5.60;99.90;;;;;;5023205;28;20224;-90
2022/04/19 14:44:40;;;;;;;2.17;1.40;;;5.50;99.90;;;;;;5022236;28;20232;-90
2022/04/19 14:47:11;;;;;;;2.00;1.60;;;5.50;99.90;;;;;;5038515;28;20240;-93
2022/04/19 15:08:34;;;;;;;2.70;1.47;;;5.70;99.90;;;;;;5247462;23;20244;-90
2022/04/19 15:11:06;;;;;;;2.40;1.20;;;5.70;99.90;;;;;;5013801;28;20248;-94
2022/04/19 15:16:24;;;;;;;2.03;1.43;;;5.70;99.90;;;;;;5015427;28;20217;-91